sensor_id;sensor_type;location;lat;lon;timestamp;temperature;humidity
27667;DHT22;15074;50.940;5.282;2024-03-02T00:00:37;7.50;99.90
27667;DHT22;15074;50.940;5.282;2024-03-02T00:03:03;7.40;99.90
27667;DHT22;15074;50.940;5.282;2024-03-02T00:05:29;7.30;99.90
27667;DHT22;15074;50.940;5.282;2024-03-02T00:07:56;7.20;99.90
27667;DHT22;15074;50.940;5.282;2024-03-02T00:10:27;7.10;99.90
27667;DHT22;15074;50.940;5.282;2024-03-02T00:12:55;7.00;99.90
27667;DHT22;15074;50.940;5.282;2024-03-02T00:18:02;7.00;99.90
27667;DHT22;15074;50.940;5.282;2024-03-02T00:20:30;7.00;99.90
27667;DHT22;15074;50.940;5.282;2024-03-02T00:23:04;7.00;99.90
27667;DHT22;15074;50.940;5.282;2024-03-02T00:28:05;7.10;99.90
27667;DHT22;15074;50.940;5.282;2024-03-02T00:33:18;7.20;99.90
27667;DHT22;15074;50.940;5.282;2024-03-02T00:35:47;7.20;99.90
27667;DHT22;15074;50.940;5.282;2024-03-02T00:38:14;7.20;99.90
27667;DHT22;15074;50.940;5.282;2024-03-02T00:40:41;7.20;99.90
27667;DHT22;15074;50.940;5.282;2024-03-02T00:43:30;7.30;99.90
27667;DHT22;15074;50.940;5.282;2024-03-02T00:45:57;7.30;99.90
27667;DHT22;15074;50.940;5.282;2024-03-02T00:48:23;7.40;99.90
27667;DHT22;15074;50.940;5.282;2024-03-02T00:50:52;7.40;99.90
27667;DHT22;15074;50.940;5.282;2024-03-02T00:53:22;7.40;99.90
27667;DHT22;15074;50.940;5.282;2024-03-02T00:55:50;7.40;99.90
27667;DHT22;15074;50.940;5.282;2024-03-02T00:58:16;7.50;99.90
27667;DHT22;15074;50.940;5.282;2024-03-02T01:00:41;7.50;99.90
27667;DHT22;15074;50.940;5.282;2024-03-02T01:03:07;7.50;99.90
27667;DHT22;15074;50.940;5.282;2024-03-02T01:05:33;7.50;99.90
27667;DHT22;15074;50.940;5.282;2024-03-02T01:07:59;7.50;99.90
27667;DHT22;15074;50.940;5.282;2024-03-02T01:10:25;7.50;99.90
27667;DHT22;15074;50.940;5.282;2024-03-02T01:12:51;7.60;99.90
27667;DHT22;15074;50.940;5.282;2024-03-02T01:15:17;7.60;99.90
27667;DHT22;15074;50.940;5.282;2024-03-02T01:17:43;7.60;99.90
27667;DHT22;15074;50.940;5.282;2024-03-02T01:20:09;7.60;99.90
27667;DHT22;15074;50.940;5.282;2024-03-02T01:22:35;7.60;99.90
27667;DHT22;15074;50.940;5.282;2024-03-02T01:25:01;7.50;99.90
27667;DHT22;15074;50.940;5.282;2024-03-02T01:27:27;7.50;99.90
27667;DHT22;15074;50.940;5.282;2024-03-02T01:29:53;7.40;99.90
27667;DHT22;15074;50.940;5.282;2024-03-02T01:32:20;7.40;99.90
27667;DHT22;15074;50.940;5.282;2024-03-02T01:34:45;7.40;99.90
27667;DHT22;15074;50.940;5.282;2024-03-02T01:37:11;7.40;99.90
27667;DHT22;15074;50.940;5.282;2024-03-02T01:39:37;7.40;99.90
27667;DHT22;15074;50.940;5.282;2024-03-02T01:42:03;7.30;99.90
27667;DHT22;15074;50.940;5.282;2024-03-02T01:44:28;7.30;99.90
27667;DHT22;15074;50.940;5.282;2024-03-02T01:46:54;7.30;99.90
27667;DHT22;15074;50.940;5.282;2024-03-02T01:49:20;7.20;99.90
27667;DHT22;15074;50.940;5.282;2024-03-02T01:51:45;7.20;99.90
27667;DHT22;15074;50.940;5.282;2024-03-02T01:54:11;7.20;99.90
27667;DHT22;15074;50.940;5.282;2024-03-02T01:56:37;7.30;99.90
27667;DHT22;15074;50.940;5.282;2024-03-02T01:59:03;7.20;99.90
27667;DHT22;15074;50.940;5.282;2024-03-02T02:01:28;7.20;99.90
27667;DHT22;15074;50.940;5.282;2024-03-02T02:03:54;7.20;99.90
27667;DHT22;15074;50.940;5.282;2024-03-02T02:06:21;7.20;99.90
27667;DHT22;15074;50.940;5.282;2024-03-02T02:08:47;7.20;99.90
27667;DHT22;15074;50.940;5.282;2024-03-02T02:11:16;7.10;99.90
27667;DHT22;15074;50.940;5.282;2024-03-02T02:13:42;7.20;99.90
27667;DHT22;15074;50.940;5.282;2024-03-02T02:16:08;7.20;99.90
27667;DHT22;15074;50.940;5.282;2024-03-02T02:18:34;7.10;99.90
27667;DHT22;15074;50.940;5.282;2024-03-02T02:21:01;7.10;99.90
27667;DHT22;15074;50.940;5.282;2024-03-02T02:23:27;7.10;99.90
27667;DHT22;15074;50.940;5.282;2024-03-02T02:25:52;7.10;99.90
27667;DHT22;15074;50.940;5.282;2024-03-02T02:28:18;7.10;99.90
27667;DHT22;15074;50.940;5.282;2024-03-02T02:30:44;7.10;99.90
27667;DHT22;15074;50.940;5.282;2024-03-02T02:33:09;7.10;99.90
27667;DHT22;15074;50.940;5.282;2024-03-02T02:35:35;7.10;99.90
27667;DHT22;15074;50.940;5.282;2024-03-02T02:38:02;7.10;99.90
27667;DHT22;15074;50.940;5.282;2024-03-02T02:40:28;7.00;99.90
27667;DHT22;15074;50.940;5.282;2024-03-02T02:42:57;7.10;99.90
27667;DHT22;15074;50.940;5.282;2024-03-02T02:45:24;7.00;99.90
27667;DHT22;15074;50.940;5.282;2024-03-02T02:47:50;7.00;99.90
27667;DHT22;15074;50.940;5.282;2024-03-02T02:50:16;7.00;99.90
27667;DHT22;15074;50.940;5.282;2024-03-02T02:52:42;7.00;99.90
27667;DHT22;15074;50.940;5.282;2024-03-02T02:55:12;7.00;99.90
27667;DHT22;15074;50.940;5.282;2024-03-02T02:57:40;7.00;99.90
27667;DHT22;15074;50.940;5.282;2024-03-02T03:00:09;7.00;99.90
27667;DHT22;15074;50.940;5.282;2024-03-02T03:02:38;7.10;99.90
27667;DHT22;15074;50.940;5.282;2024-03-02T03:05:05;7.10;99.90
27667;DHT22;15074;50.940;5.282;2024-03-02T03:07:31;7.00;99.90
27667;DHT22;15074;50.940;5.282;2024-03-02T03:09:57;7.10;99.90
27667;DHT22;15074;50.940;5.282;2024-03-02T03:12:23;7.10;99.90
27667;DHT22;15074;50.940;5.282;2024-03-02T03:14:49;7.10;99.90
27667;DHT22;15074;50.940;5.282;2024-03-02T03:17:14;7.00;99.90
27667;DHT22;15074;50.940;5.282;2024-03-02T03:19:40;7.00;99.90
27667;DHT22;15074;50.940;5.282;2024-03-02T03:22:06;7.10;99.90
27667;DHT22;15074;50.940;5.282;2024-03-02T03:24:31;7.10;99.90
27667;DHT22;15074;50.940;5.282;2024-03-02T03:26:58;7.10;99.90
27667;DHT22;15074;50.940;5.282;2024-03-02T03:29:24;7.00;99.90
27667;DHT22;15074;50.940;5.282;2024-03-02T03:31:49;7.00;99.90
27667;DHT22;15074;50.940;5.282;2024-03-02T03:34:15;6.90;99.90
27667;DHT22;15074;50.940;5.282;2024-03-02T03:36:42;7.00;99.90
27667;DHT22;15074;50.940;5.282;2024-03-02T03:39:07;6.90;99.90
27667;DHT22;15074;50.940;5.282;2024-03-02T03:41:33;6.90;99.90
27667;DHT22;15074;50.940;5.282;2024-03-02T03:43:58;6.90;99.90
27667;DHT22;15074;50.940;5.282;2024-03-02T03:46:24;6.80;99.90
27667;DHT22;15074;50.940;5.282;2024-03-02T03:48:50;6.80;99.90
27667;DHT22;15074;50.940;5.282;2024-03-02T03:51:16;6.90;99.90
27667;DHT22;15074;50.940;5.282;2024-03-02T03:53:41;7.00;99.90
27667;DHT22;15074;50.940;5.282;2024-03-02T03:56:07;7.00;99.90
27667;DHT22;15074;50.940;5.282;2024-03-02T03:58:33;7.10;99.90
27667;DHT22;15074;50.940;5.282;2024-03-02T04:00:58;7.00;99.90
27667;DHT22;15074;50.940;5.282;2024-03-02T04:03:24;7.00;99.90
27667;DHT22;15074;50.940;5.282;2024-03-02T04:05:50;7.00;99.90
27667;DHT22;15074;50.940;5.282;2024-03-02T04:08:16;7.00;99.90
27667;DHT22;15074;50.940;5.282;2024-03-02T04:10:42;7.00;99.90
27667;DHT22;15074;50.940;5.282;2024-03-02T04:13:08;7.00;99.90
27667;DHT22;15074;50.940;5.282;2024-03-02T04:15:33;7.00;99.90
27667;DHT22;15074;50.940;5.282;2024-03-02T04:17:59;7.00;99.90
27667;DHT22;15074;50.940;5.282;2024-03-02T04:20:24;6.90;99.90
27667;DHT22;15074;50.940;5.282;2024-03-02T04:22:51;7.00;99.90
27667;DHT22;15074;50.940;5.282;2024-03-02T04:25:16;6.90;99.90
27667;DHT22;15074;50.940;5.282;2024-03-02T04:27:42;6.80;99.90
27667;DHT22;15074;50.940;5.282;2024-03-02T04:30:08;6.80;99.90
27667;DHT22;15074;50.940;5.282;2024-03-02T04:32:34;6.70;99.90
27667;DHT22;15074;50.940;5.282;2024-03-02T04:35:01;6.70;99.90
27667;DHT22;15074;50.940;5.282;2024-03-02T04:37:27;6.60;99.90
27667;DHT22;15074;50.940;5.282;2024-03-02T04:39:52;6.70;99.90
27667;DHT22;15074;50.940;5.282;2024-03-02T04:42:18;6.80;99.90
27667;DHT22;15074;50.940;5.282;2024-03-02T04:44:43;6.80;99.90
27667;DHT22;15074;50.940;5.282;2024-03-02T04:47:09;6.80;99.90
27667;DHT22;15074;50.940;5.282;2024-03-02T04:49:35;6.80;99.90
27667;DHT22;15074;50.940;5.282;2024-03-02T04:52:00;6.90;99.90
27667;DHT22;15074;50.940;5.282;2024-03-02T04:54:27;6.90;99.90
27667;DHT22;15074;50.940;5.282;2024-03-02T04:56:52;6.80;99.90
27667;DHT22;15074;50.940;5.282;2024-03-02T04:59:18;6.70;99.90
27667;DHT22;15074;50.940;5.282;2024-03-02T05:01:44;6.70;99.90
27667;DHT22;15074;50.940;5.282;2024-03-02T05:04:10;6.70;99.90
27667;DHT22;15074;50.940;5.282;2024-03-02T05:06:39;6.60;99.90
27667;DHT22;15074;50.940;5.282;2024-03-02T05:09:08;6.50;99.90
27667;DHT22;15074;50.940;5.282;2024-03-02T05:11:35;6.50;99.90
27667;DHT22;15074;50.940;5.282;2024-03-02T05:14:04;6.30;99.90
27667;DHT22;15074;50.940;5.282;2024-03-02T05:16:33;6.30;99.90
27667;DHT22;15074;50.940;5.282;2024-03-02T05:18:58;6.30;99.90
27667;DHT22;15074;50.940;5.282;2024-03-02T05:21:24;6.30;99.90
27667;DHT22;15074;50.940;5.282;2024-03-02T05:23:49;6.20;99.90
27667;DHT22;15074;50.940;5.282;2024-03-02T05:26:15;6.10;99.90
27667;DHT22;15074;50.940;5.282;2024-03-02T05:28:42;6.20;99.90
27667;DHT22;15074;50.940;5.282;2024-03-02T05:31:10;6.20;99.90
27667;DHT22;15074;50.940;5.282;2024-03-02T05:33:38;6.10;99.90
27667;DHT22;15074;50.940;5.282;2024-03-02T05:36:04;6.10;99.90
27667;DHT22;15074;50.940;5.282;2024-03-02T05:38:31;6.00;99.90
27667;DHT22;15074;50.940;5.282;2024-03-02T05:40:57;6.00;99.90
27667;DHT22;15074;50.940;5.282;2024-03-02T05:43:23;6.00;99.90
27667;DHT22;15074;50.940;5.282;2024-03-02T05:45:50;5.90;99.90
27667;DHT22;15074;50.940;5.282;2024-03-02T05:48:15;6.00;99.90
27667;DHT22;15074;50.940;5.282;2024-03-02T05:50:41;6.00;99.90
27667;DHT22;15074;50.940;5.282;2024-03-02T05:53:06;6.00;99.90
27667;DHT22;15074;50.940;5.282;2024-03-02T05:55:32;6.00;99.90
27667;DHT22;15074;50.940;5.282;2024-03-02T05:57:58;6.00;99.90
27667;DHT22;15074;50.940;5.282;2024-03-02T06:00:24;6.00;99.90
27667;DHT22;15074;50.940;5.282;2024-03-02T06:02:49;6.00;99.90
27667;DHT22;15074;50.940;5.282;2024-03-02T06:05:15;6.10;99.90
27667;DHT22;15074;50.940;5.282;2024-03-02T06:07:43;6.10;99.90
27667;DHT22;15074;50.940;5.282;2024-03-02T06:10:08;6.10;99.90
27667;DHT22;15074;50.940;5.282;2024-03-02T06:12:34;6.10;99.90
27667;DHT22;15074;50.940;5.282;2024-03-02T06:15:00;6.10;99.90
27667;DHT22;15074;50.940;5.282;2024-03-02T06:17:26;6.10;99.90
27667;DHT22;15074;50.940;5.282;2024-03-02T06:19:51;6.10;99.90
27667;DHT22;15074;50.940;5.282;2024-03-02T06:22:17;6.10;99.90
27667;DHT22;15074;50.940;5.282;2024-03-02T06:24:44;6.10;99.90
27667;DHT22;15074;50.940;5.282;2024-03-02T06:27:10;6.10;99.90
27667;DHT22;15074;50.940;5.282;2024-03-02T06:29:35;6.20;99.90
27667;DHT22;15074;50.940;5.282;2024-03-02T06:32:01;6.20;99.90
27667;DHT22;15074;50.940;5.282;2024-03-02T06:34:27;6.10;99.90
27667;DHT22;15074;50.940;5.282;2024-03-02T06:36:52;6.10;99.90
27667;DHT22;15074;50.940;5.282;2024-03-02T06:39:18;6.10;99.90
27667;DHT22;15074;50.940;5.282;2024-03-02T06:41:43;6.10;99.90
27667;DHT22;15074;50.940;5.282;2024-03-02T06:44:09;6.10;99.90
27667;DHT22;15074;50.940;5.282;2024-03-02T06:46:35;6.10;99.90
27667;DHT22;15074;50.940;5.282;2024-03-02T06:49:00;6.10;99.90
27667;DHT22;15074;50.940;5.282;2024-03-02T06:51:27;6.20;99.90
27667;DHT22;15074;50.940;5.282;2024-03-02T06:53:53;6.50;99.90
27667;DHT22;15074;50.940;5.282;2024-03-02T06:56:19;7.00;99.90
27667;DHT22;15074;50.940;5.282;2024-03-02T06:58:44;7.30;99.90
27667;DHT22;15074;50.940;5.282;2024-03-02T07:01:10;7.50;99.90
27667;DHT22;15074;50.940;5.282;2024-03-02T07:03:36;7.70;99.90
27667;DHT22;15074;50.940;5.282;2024-03-02T07:06:01;8.20;99.90
27667;DHT22;15074;50.940;5.282;2024-03-02T07:08:27;8.30;99.90
27667;DHT22;15074;50.940;5.282;2024-03-02T07:10:53;7.90;99.90
27667;DHT22;15074;50.940;5.282;2024-03-02T07:13:18;7.60;99.90
27667;DHT22;15074;50.940;5.282;2024-03-02T07:15:44;7.30;99.90
27667;DHT22;15074;50.940;5.282;2024-03-02T07:18:45;6.90;99.90
27667;DHT22;15074;50.940;5.282;2024-03-02T07:21:16;6.80;99.90
27667;DHT22;15074;50.940;5.282;2024-03-02T07:23:42;6.80;99.90
27667;DHT22;15074;50.940;5.282;2024-03-02T07:26:07;6.70;99.90
27667;DHT22;15074;50.940;5.282;2024-03-02T07:28:33;6.60;99.90
27667;DHT22;15074;50.940;5.282;2024-03-02T07:31:04;6.60;99.90
27667;DHT22;15074;50.940;5.282;2024-03-02T07:33:30;6.70;99.90
27667;DHT22;15074;50.940;5.282;2024-03-02T07:35:56;6.70;99.90
27667;DHT22;15074;50.940;5.282;2024-03-02T07:38:23;6.70;99.90
27667;DHT22;15074;50.940;5.282;2024-03-02T07:40:49;6.80;99.90
27667;DHT22;15074;50.940;5.282;2024-03-02T07:43:19;6.80;99.90
27667;DHT22;15074;50.940;5.282;2024-03-02T07:45:45;6.90;99.90
27667;DHT22;15074;50.940;5.282;2024-03-02T07:48:11;6.90;99.90
27667;DHT22;15074;50.940;5.282;2024-03-02T07:50:37;7.10;99.90
27667;DHT22;15074;50.940;5.282;2024-03-02T07:53:04;7.60;99.90
27667;DHT22;15074;50.940;5.282;2024-03-02T07:55:30;8.00;99.90
27667;DHT22;15074;50.940;5.282;2024-03-02T07:57:56;8.20;99.90
27667;DHT22;15074;50.940;5.282;2024-03-02T08:00:23;8.30;99.90
27667;DHT22;15074;50.940;5.282;2024-03-02T08:02:50;8.80;99.90
27667;DHT22;15074;50.940;5.282;2024-03-02T08:05:16;9.60;99.90
27667;DHT22;15074;50.940;5.282;2024-03-02T08:07:43;10.50;99.90
27667;DHT22;15074;50.940;5.282;2024-03-02T08:10:09;10.80;99.90
27667;DHT22;15074;50.940;5.282;2024-03-02T08:12:35;11.20;99.90
27667;DHT22;15074;50.940;5.282;2024-03-02T08:15:01;11.30;99.90
27667;DHT22;15074;50.940;5.282;2024-03-02T08:17:26;11.20;99.90
27667;DHT22;15074;50.940;5.282;2024-03-02T08:19:52;11.70;99.90
27667;DHT22;15074;50.940;5.282;2024-03-02T08:22:18;12.20;99.90
27667;DHT22;15074;50.940;5.282;2024-03-02T08:24:44;11.80;99.90
27667;DHT22;15074;50.940;5.282;2024-03-02T08:27:10;11.50;99.90
27667;DHT22;15074;50.940;5.282;2024-03-02T08:29:36;11.30;99.90
27667;DHT22;15074;50.940;5.282;2024-03-02T08:32:02;11.40;99.90
27667;DHT22;15074;50.940;5.282;2024-03-02T08:34:28;11.00;99.90
27667;DHT22;15074;50.940;5.282;2024-03-02T08:36:53;11.00;99.90
27667;DHT22;15074;50.940;5.282;2024-03-02T08:39:19;11.30;99.90
27667;DHT22;15074;50.940;5.282;2024-03-02T08:41:46;11.90;99.90
27667;DHT22;15074;50.940;5.282;2024-03-02T08:44:13;11.70;99.90
27667;DHT22;15074;50.940;5.282;2024-03-02T08:46:39;11.70;99.90
27667;DHT22;15074;50.940;5.282;2024-03-02T08:49:06;11.70;99.90
27667;DHT22;15074;50.940;5.282;2024-03-02T08:51:31;11.90;99.90
27667;DHT22;15074;50.940;5.282;2024-03-02T08:53:57;12.00;99.90
27667;DHT22;15074;50.940;5.282;2024-03-02T08:56:24;11.90;99.90
27667;DHT22;15074;50.940;5.282;2024-03-02T08:58:50;11.20;99.90
27667;DHT22;15074;50.940;5.282;2024-03-02T09:01:16;11.70;99.90
27667;DHT22;15074;50.940;5.282;2024-03-02T09:03:42;11.30;99.90
27667;DHT22;15074;50.940;5.282;2024-03-02T09:06:13;11.60;99.90
27667;DHT22;15074;50.940;5.282;2024-03-02T09:08:39;12.10;99.90
27667;DHT22;15074;50.940;5.282;2024-03-02T09:11:05;12.50;99.90
27667;DHT22;15074;50.940;5.282;2024-03-02T09:13:32;12.70;99.90
27667;DHT22;15074;50.940;5.282;2024-03-02T09:15:58;12.80;99.90
27667;DHT22;15074;50.940;5.282;2024-03-02T09:18:24;12.70;99.90
27667;DHT22;15074;50.940;5.282;2024-03-02T09:20:50;12.90;99.90
27667;DHT22;15074;50.940;5.282;2024-03-02T09:23:15;13.40;99.90
27667;DHT22;15074;50.940;5.282;2024-03-02T09:25:41;13.70;99.90
27667;DHT22;15074;50.940;5.282;2024-03-02T09:28:06;13.80;99.90
27667;DHT22;15074;50.940;5.282;2024-03-02T09:30:33;14.20;99.90
27667;DHT22;15074;50.940;5.282;2024-03-02T09:32:59;13.60;99.90
27667;DHT22;15074;50.940;5.282;2024-03-02T09:35:25;13.20;99.90
27667;DHT22;15074;50.940;5.282;2024-03-02T09:37:51;13.00;99.90
27667;DHT22;15074;50.940;5.282;2024-03-02T09:40:17;13.40;99.90
27667;DHT22;15074;50.940;5.282;2024-03-02T09:42:43;12.50;99.90
27667;DHT22;15074;50.940;5.282;2024-03-02T09:45:10;11.90;99.90
27667;DHT22;15074;50.940;5.282;2024-03-02T09:47:36;11.50;99.90
27667;DHT22;15074;50.940;5.282;2024-03-02T09:50:02;11.50;99.90
27667;DHT22;15074;50.940;5.282;2024-03-02T09:52:30;11.30;99.90
27667;DHT22;15074;50.940;5.282;2024-03-02T09:54:56;11.30;99.90
27667;DHT22;15074;50.940;5.282;2024-03-02T09:57:22;11.40;99.90
27667;DHT22;15074;50.940;5.282;2024-03-02T09:59:47;11.80;99.90
27667;DHT22;15074;50.940;5.282;2024-03-02T10:02:13;11.90;99.90
27667;DHT22;15074;50.940;5.282;2024-03-02T10:04:38;11.50;99.90
27667;DHT22;15074;50.940;5.282;2024-03-02T10:09:39;11.40;99.90
27667;DHT22;15074;50.940;5.282;2024-03-02T10:12:07;11.70;99.90
27667;DHT22;15074;50.940;5.282;2024-03-02T10:14:33;11.60;99.90
27667;DHT22;15074;50.940;5.282;2024-03-02T10:17:03;11.50;99.90
27667;DHT22;15074;50.940;5.282;2024-03-02T10:19:29;11.40;99.90
27667;DHT22;15074;50.940;5.282;2024-03-02T10:22:05;11.30;99.90
27667;DHT22;15074;50.940;5.282;2024-03-02T10:24:44;11.30;99.90
27667;DHT22;15074;50.940;5.282;2024-03-02T10:27:19;11.30;99.90
27667;DHT22;15074;50.940;5.282;2024-03-02T10:29:48;11.20;99.90
27667;DHT22;15074;50.940;5.282;2024-03-02T10:32:15;11.40;99.90
27667;DHT22;15074;50.940;5.282;2024-03-02T10:34:42;11.80;99.90
27667;DHT22;15074;50.940;5.282;2024-03-02T10:37:08;11.80;99.90
27667;DHT22;15074;50.940;5.282;2024-03-02T10:39:35;11.80;99.90
27667;DHT22;15074;50.940;5.282;2024-03-02T10:42:05;12.10;99.90
27667;DHT22;15074;50.940;5.282;2024-03-02T10:44:32;12.70;99.90
27667;DHT22;15074;50.940;5.282;2024-03-02T10:47:01;13.30;99.90
27667;DHT22;15074;50.940;5.282;2024-03-02T10:49:32;13.30;99.90
27667;DHT22;15074;50.940;5.282;2024-03-02T10:51:59;13.70;99.90
27667;DHT22;15074;50.940;5.282;2024-03-02T10:54:24;14.00;99.90
27667;DHT22;15074;50.940;5.282;2024-03-02T10:56:58;14.50;99.90
27667;DHT22;15074;50.940;5.282;2024-03-02T10:59:32;14.40;99.90
27667;DHT22;15074;50.940;5.282;2024-03-02T11:02:00;14.20;99.90
27667;DHT22;15074;50.940;5.282;2024-03-02T11:04:27;14.70;99.90
27667;DHT22;15074;50.940;5.282;2024-03-02T11:07:04;15.80;99.90
27667;DHT22;15074;50.940;5.282;2024-03-02T11:09:30;15.20;99.90
27667;DHT22;15074;50.940;5.282;2024-03-02T11:12:22;15.20;99.90
27667;DHT22;15074;50.940;5.282;2024-03-02T11:14:48;15.20;99.90
27667;DHT22;15074;50.940;5.282;2024-03-02T11:17:17;15.10;99.90
27667;DHT22;15074;50.940;5.282;2024-03-02T11:19:44;15.30;99.90
27667;DHT22;15074;50.940;5.282;2024-03-02T11:22:11;15.20;99.90
27667;DHT22;15074;50.940;5.282;2024-03-02T11:24:37;15.50;99.90
27667;DHT22;15074;50.940;5.282;2024-03-02T11:27:04;15.10;99.90
27667;DHT22;15074;50.940;5.282;2024-03-02T11:32:06;15.30;99.90
27667;DHT22;15074;50.940;5.282;2024-03-02T11:34:38;14.50;99.90
27667;DHT22;15074;50.940;5.282;2024-03-02T11:37:10;13.90;99.90
27667;DHT22;15074;50.940;5.282;2024-03-02T11:39:38;14.00;99.90
27667;DHT22;15074;50.940;5.282;2024-03-02T11:42:06;13.90;99.90
27667;DHT22;15074;50.940;5.282;2024-03-02T11:44:36;14.20;99.90
27667;DHT22;15074;50.940;5.282;2024-03-02T11:47:06;14.00;99.90
27667;DHT22;15074;50.940;5.282;2024-03-02T11:49:57;14.10;99.90
27667;DHT22;15074;50.940;5.282;2024-03-02T11:52:24;13.90;99.90
27667;DHT22;15074;50.940;5.282;2024-03-02T11:54:51;14.10;99.90
27667;DHT22;15074;50.940;5.282;2024-03-02T11:57:21;14.30;99.90
27667;DHT22;15074;50.940;5.282;2024-03-02T11:59:51;14.50;99.90
27667;DHT22;15074;50.940;5.282;2024-03-02T12:02:19;14.30;99.90
27667;DHT22;15074;50.940;5.282;2024-03-02T12:04:46;14.30;99.90
27667;DHT22;15074;50.940;5.282;2024-03-02T12:07:19;14.30;99.90
27667;DHT22;15074;50.940;5.282;2024-03-02T12:09:46;15.00;99.90
27667;DHT22;15074;50.940;5.282;2024-03-02T12:12:11;15.10;99.90
27667;DHT22;15074;50.940;5.282;2024-03-02T12:14:50;15.00;99.90
27667;DHT22;15074;50.940;5.282;2024-03-02T12:17:17;14.90;99.90
27667;DHT22;15074;50.940;5.282;2024-03-02T12:19:42;14.90;99.90
27667;DHT22;15074;50.940;5.282;2024-03-02T12:22:08;15.20;99.90
27667;DHT22;15074;50.940;5.282;2024-03-02T12:24:34;15.80;99.90
27667;DHT22;15074;50.940;5.282;2024-03-02T12:27:00;15.50;99.90
27667;DHT22;15074;50.940;5.282;2024-03-02T12:29:26;15.40;99.90
27667;DHT22;15074;50.940;5.282;2024-03-02T12:31:52;15.00;99.90
27667;DHT22;15074;50.940;5.282;2024-03-02T12:34:18;15.10;99.90
27667;DHT22;15074;50.940;5.282;2024-03-02T12:36:46;15.50;99.90
27667;DHT22;15074;50.940;5.282;2024-03-02T12:39:18;15.90;99.90
27667;DHT22;15074;50.940;5.282;2024-03-02T12:41:44;15.90;99.90
27667;DHT22;15074;50.940;5.282;2024-03-02T12:44:10;16.00;99.90
27667;DHT22;15074;50.940;5.282;2024-03-02T12:46:36;16.00;99.90
27667;DHT22;15074;50.940;5.282;2024-03-02T12:49:15;15.80;99.90
27667;DHT22;15074;50.940;5.282;2024-03-02T12:51:46;15.80;99.90
27667;DHT22;15074;50.940;5.282;2024-03-02T12:54:17;16.20;99.90
27667;DHT22;15074;50.940;5.282;2024-03-02T12:56:43;15.40;99.90
27667;DHT22;15074;50.940;5.282;2024-03-02T12:59:18;14.80;99.90
27667;DHT22;15074;50.940;5.282;2024-03-02T13:01:54;14.50;99.90
27667;DHT22;15074;50.940;5.282;2024-03-02T13:04:27;14.20;99.90
27667;DHT22;15074;50.940;5.282;2024-03-02T13:06:54;14.20;99.90
27667;DHT22;15074;50.940;5.282;2024-03-02T13:09:21;14.40;99.90
27667;DHT22;15074;50.940;5.282;2024-03-02T13:11:47;14.50;99.90
27667;DHT22;15074;50.940;5.282;2024-03-02T13:14:13;14.60;99.90
27667;DHT22;15074;50.940;5.282;2024-03-02T13:16:40;14.60;99.90
27667;DHT22;15074;50.940;5.282;2024-03-02T13:19:14;14.80;99.90
27667;DHT22;15074;50.940;5.282;2024-03-02T13:21:40;14.60;99.90
27667;DHT22;15074;50.940;5.282;2024-03-02T13:24:06;14.50;99.90
27667;DHT22;15074;50.940;5.282;2024-03-02T13:26:32;14.10;99.90
27667;DHT22;15074;50.940;5.282;2024-03-02T13:28:57;14.30;99.90
27667;DHT22;15074;50.940;5.282;2024-03-02T13:31:23;14.30;99.90
27667;DHT22;15074;50.940;5.282;2024-03-02T13:33:49;14.20;99.90
27667;DHT22;15074;50.940;5.282;2024-03-02T13:36:14;14.00;99.90
27667;DHT22;15074;50.940;5.282;2024-03-02T13:38:40;14.30;99.90
27667;DHT22;15074;50.940;5.282;2024-03-02T13:41:05;15.30;99.90
27667;DHT22;15074;50.940;5.282;2024-03-02T13:43:31;15.50;99.90
27667;DHT22;15074;50.940;5.282;2024-03-02T13:45:58;15.20;99.90
27667;DHT22;15074;50.940;5.282;2024-03-02T13:48:24;14.70;99.90
27667;DHT22;15074;50.940;5.282;2024-03-02T13:50:51;14.50;99.90
27667;DHT22;15074;50.940;5.282;2024-03-02T13:53:18;14.40;99.90
27667;DHT22;15074;50.940;5.282;2024-03-02T13:55:44;14.20;99.90
27667;DHT22;15074;50.940;5.282;2024-03-02T13:58:10;14.20;99.90
27667;DHT22;15074;50.940;5.282;2024-03-02T14:00:37;14.40;99.90
27667;DHT22;15074;50.940;5.282;2024-03-02T14:03:06;14.50;99.90
27667;DHT22;15074;50.940;5.282;2024-03-02T14:05:32;14.90;99.90
27667;DHT22;15074;50.940;5.282;2024-03-02T14:07:58;15.00;99.90
27667;DHT22;15074;50.940;5.282;2024-03-02T14:10:27;15.20;99.90
27667;DHT22;15074;50.940;5.282;2024-03-02T14:12:53;14.90;99.90
27667;DHT22;15074;50.940;5.282;2024-03-02T14:15:21;15.00;99.90
27667;DHT22;15074;50.940;5.282;2024-03-02T14:17:47;14.70;99.90
27667;DHT22;15074;50.940;5.282;2024-03-02T14:20:13;15.00;99.90
27667;DHT22;15074;50.940;5.282;2024-03-02T14:22:39;15.00;99.90
27667;DHT22;15074;50.940;5.282;2024-03-02T14:25:05;15.00;99.90
27667;DHT22;15074;50.940;5.282;2024-03-02T14:27:31;15.20;99.90
27667;DHT22;15074;50.940;5.282;2024-03-02T14:29:57;15.30;99.90
27667;DHT22;15074;50.940;5.282;2024-03-02T14:32:23;15.00;99.90
27667;DHT22;15074;50.940;5.282;2024-03-02T14:34:48;14.60;99.90
27667;DHT22;15074;50.940;5.282;2024-03-02T14:37:15;14.40;99.90
27667;DHT22;15074;50.940;5.282;2024-03-02T14:39:41;14.40;99.90
27667;DHT22;15074;50.940;5.282;2024-03-02T14:42:06;14.20;99.90
27667;DHT22;15074;50.940;5.282;2024-03-02T14:44:33;14.30;99.90
27667;DHT22;15074;50.940;5.282;2024-03-02T14:47:01;14.20;99.90
27667;DHT22;15074;50.940;5.282;2024-03-02T14:49:27;14.10;99.90
27667;DHT22;15074;50.940;5.282;2024-03-02T14:51:53;13.90;99.90
27667;DHT22;15074;50.940;5.282;2024-03-02T14:54:19;13.90;99.90
27667;DHT22;15074;50.940;5.282;2024-03-02T14:56:44;14.00;99.90
27667;DHT22;15074;50.940;5.282;2024-03-02T14:59:10;14.00;99.90
27667;DHT22;15074;50.940;5.282;2024-03-02T15:01:36;13.80;99.90
27667;DHT22;15074;50.940;5.282;2024-03-02T15:04:02;13.70;99.90
27667;DHT22;15074;50.940;5.282;2024-03-02T15:06:27;13.60;99.90
27667;DHT22;15074;50.940;5.282;2024-03-02T15:08:53;13.50;99.90
27667;DHT22;15074;50.940;5.282;2024-03-02T15:11:20;13.50;99.90
27667;DHT22;15074;50.940;5.282;2024-03-02T15:13:47;13.50;99.90
27667;DHT22;15074;50.940;5.282;2024-03-02T15:16:13;13.40;99.90
27667;DHT22;15074;50.940;5.282;2024-03-02T15:18:38;13.40;99.90
27667;DHT22;15074;50.940;5.282;2024-03-02T15:21:04;13.40;99.90
27667;DHT22;15074;50.940;5.282;2024-03-02T15:23:30;13.30;99.90
27667;DHT22;15074;50.940;5.282;2024-03-02T15:25:56;13.30;99.90
27667;DHT22;15074;50.940;5.282;2024-03-02T15:28:21;13.30;99.90
27667;DHT22;15074;50.940;5.282;2024-03-02T15:30:47;13.30;99.90
27667;DHT22;15074;50.940;5.282;2024-03-02T15:33:13;13.30;99.90
27667;DHT22;15074;50.940;5.282;2024-03-02T15:35:38;13.20;99.90
27667;DHT22;15074;50.940;5.282;2024-03-02T15:38:04;13.30;99.90
27667;DHT22;15074;50.940;5.282;2024-03-02T15:40:30;13.20;99.90
27667;DHT22;15074;50.940;5.282;2024-03-02T15:42:55;13.20;99.90
27667;DHT22;15074;50.940;5.282;2024-03-02T15:45:21;13.30;99.90
27667;DHT22;15074;50.940;5.282;2024-03-02T15:47:46;13.40;99.90